Time;durP1;ratioP1;P1;durP2;ratioP2;P2;SDS_P1;SDS_P2;PMS_P1;PMS_P2;Temp;Humidity;BMP_temperature;BMP_pressure;BME280_temperature;BME280_humidity;BME280_pressure;Samples;Min_cycle;Max_cycle;Signal;HPM_P1;HPM_P2
2022/07/30 00:00:11;;;;;;;5.10;1.80;;;23.60;89.40;;;;;;5007689;28;20225;-70
2022/07/30 00:02:38;;;;;;;4.60;2.35;;;23.60;88.40;;;;;;5007169;28;20216;-69
2022/07/30 00:05:05;;;;;;;5.90;2.10;;;23.60;88.20;;;;;;5007656;28;20209;-70
2022/07/30 00:07:34;;;;;;;7.32;1.90;;;23.60;88.20;;;;;;5007327;28;20216;-70
2022/07/30 00:10:01;;;;;;;6.00;2.33;;;23.60;88.20;;;;;;5007266;28;20229;-69
2022/07/30 00:12:29;;;;;;;3.70;1.80;;;23.50;88.20;;;;;;5007472;28;20202;-70
2022/07/30 00:14:56;;;;;;;6.43;2.10;;;23.50;88.40;;;;;;5007172;28;20209;-70
2022/07/30 00:17:23;;;;;;;4.40;1.90;;;23.50;88.90;;;;;;5006911;28;20209;-70
2022/07/30 00:19:50;;;;;;;5.13;2.00;;;23.50;89.00;;;;;;5010086;28;20229;-71
2022/07/30 00:22:16;;;;;;;7.28;2.50;;;23.40;89.10;;;;;;5010860;28;20279;-70
2022/07/30 00:24:44;;;;;;;3.90;1.80;;;23.40;89.40;;;;;;5028263;28;20345;-71
2022/07/30 00:27:13;;;;;;;2.88;2.10;;;23.40;89.60;;;;;;5029393;28;20279;-69
2022/07/30 00:29:41;;;;;;;5.03;2.10;;;23.40;89.60;;;;;;5030688;28;20340;-69
2022/07/30 00:32:08;;;;;;;2.35;2.10;;;23.30;89.60;;;;;;5028756;28;20220;-69
2022/07/30 00:34:35;;;;;;;5.30;2.05;;;23.20;90.00;;;;;;5030249;28;20791;-69
2022/07/30 00:37:01;;;;;;;3.63;1.92;;;23.20;90.10;;;;;;5030782;28;20232;-69
2022/07/30 00:39:29;;;;;;;3.55;2.20;;;23.10;90.20;;;;;;5030621;28;20209;-69
2022/07/30 00:41:58;;;;;;;3.92;1.90;;;23.00;90.30;;;;;;5030067;28;20263;-69
2022/07/30 00:44:25;;;;;;;4.22;2.00;;;23.00;90.40;;;;;;5030110;28;20211;-70
2022/07/30 00:46:54;;;;;;;6.45;2.10;;;23.00;90.50;;;;;;5029498;28;20224;-70
2022/07/30 00:49:21;;;;;;;3.08;1.83;;;23.00;90.40;;;;;;5030285;28;20213;-70
2022/07/30 00:51:48;;;;;;;3.97;2.08;;;22.90;90.50;;;;;;5030089;28;20235;-70
2022/07/30 00:54:15;;;;;;;3.08;1.90;;;22.90;90.60;;;;;;5029800;28;20213;-70
2022/07/30 00:56:42;;;;;;;2.53;1.92;;;22.90;90.60;;;;;;5029553;28;20244;-70
2022/07/30 00:59:09;;;;;;;2.45;1.98;;;22.90;90.80;;;;;;5030084;28;20231;-69
2022/07/30 01:01:37;;;;;;;2.55;2.25;;;22.90;90.90;;;;;;5012448;28;20232;-69
2022/07/30 01:04:10;;;;;;;5.00;1.92;;;23.00;90.80;;;;;;5010155;28;20210;-69
2022/07/30 01:06:37;;;;;;;2.75;2.10;;;22.90;90.80;;;;;;5010157;28;20447;-69
2022/07/30 01:09:04;;;;;;;3.45;1.95;;;22.80;90.80;;;;;;5010036;28;20212;-69
2022/07/30 01:11:36;;;;;;;2.30;2.10;;;22.80;90.80;;;;;;5010266;28;20229;-72
2022/07/30 01:14:03;;;;;;;5.10;2.30;;;22.80;90.90;;;;;;5014516;28;20204;-71
2022/07/30 01:16:30;;;;;;;3.80;2.08;;;22.70;91.00;;;;;;5029972;28;20295;-70
2022/07/30 01:21:51;;;;;;;4.60;2.08;;;22.70;91.20;;;;;;5029865;28;20662;-69
2022/07/30 01:24:26;;;;;;;4.95;1.90;;;22.60;91.20;;;;;;5029809;28;20204;-69
2022/07/30 01:26:56;;;;;;;4.53;2.00;;;22.70;91.30;;;;;;5029638;28;20200;-69
2022/07/30 01:29:24;;;;;;;2.92;1.90;;;22.70;91.40;;;;;;5029130;28;20201;-69
2022/07/30 01:31:58;;;;;;;3.28;2.03;;;22.70;91.40;;;;;;5028991;28;20232;-70
2022/07/30 01:34:27;;;;;;;5.30;2.35;;;22.60;91.30;;;;;;5029527;28;20199;-67
2022/07/30 01:36:56;;;;;;;3.38;2.08;;;22.70;91.50;;;;;;5029533;28;20225;-68
2022/07/30 01:39:25;;;;;;;3.60;2.15;;;22.60;91.50;;;;;;5029266;28;20231;-68
2022/07/30 01:41:56;;;;;;;7.32;2.30;;;22.50;91.80;;;;;;5029056;28;20802;-68
2022/07/30 01:44:26;;;;;;;4.40;2.17;;;22.50;91.70;;;;;;5029473;28;20258;-69
2022/07/30 01:46:54;;;;;;;2.25;1.95;;;22.50;91.80;;;;;;5029221;28;20221;-68
2022/07/30 01:49:23;;;;;;;3.33;2.08;;;22.50;91.80;;;;;;5029173;28;20219;-68
2022/07/30 01:51:51;;;;;;;5.45;2.08;;;22.50;91.80;;;;;;5028992;28;20232;-68
2022/07/30 01:54:19;;;;;;;2.80;2.00;;;22.50;91.80;;;;;;5028956;28;20217;-68
2022/07/30 01:56:49;;;;;;;2.85;2.08;;;22.50;91.90;;;;;;5028562;28;20343;-68
2022/07/30 01:59:20;;;;;;;7.20;2.10;;;22.50;91.80;;;;;;5028578;28;20766;-68
2022/07/30 02:01:47;;;;;;;2.55;1.90;;;22.40;92.10;;;;;;5025755;28;20292;-68
2022/07/30 02:04:14;;;;;;;5.43;1.90;;;22.30;92.00;;;;;;5028852;28;20204;-68
2022/07/30 02:06:46;;;;;;;4.53;1.83;;;22.30;92.10;;;;;;5028669;28;20212;-68
2022/07/30 02:09:16;;;;;;;2.75;1.88;;;22.30;92.20;;;;;;5022513;28;20196;-68
2022/07/30 02:14:39;;;;;;;3.63;2.53;;;22.30;92.20;;;;;;5008646;28;20255;-68
2022/07/30 02:17:08;;;;;;;2.25;2.00;;;22.30;92.20;;;;;;5008424;28;20241;-68
2022/07/30 02:19:41;;;;;;;4.07;2.00;;;22.30;92.30;;;;;;5008638;28;20677;-68
2022/07/30 02:22:10;;;;;;;4.57;2.05;;;22.20;92.30;;;;;;5008365;28;20213;-68
2022/07/30 02:24:41;;;;;;;6.00;2.25;;;22.20;92.30;;;;;;5025148;28;20220;-68
2022/07/30 02:27:13;;;;;;;4.90;2.05;;;22.10;92.40;;;;;;5027807;28;20687;-68
2022/07/30 02:29:44;;;;;;;6.63;2.08;;;22.10;92.50;;;;;;5028344;28;20200;-68
2022/07/30 02:32:15;;;;;;;8.02;1.92;;;22.20;92.50;;;;;;5028288;28;20232;-70
2022/07/30 02:34:46;;;;;;;3.63;2.40;;;22.10;92.40;;;;;;5028630;28;20193;-70
2022/07/30 02:37:14;;;;;;;5.35;2.50;;;22.10;92.50;;;;;;5028310;28;20236;-70
2022/07/30 02:39:43;;;;;;;3.45;2.17;;;22.10;92.50;;;;;;5028009;28;20231;-70
2022/07/30 02:42:12;;;;;;;2.72;1.88;;;22.10;92.40;;;;;;5027242;28;20204;-70
2022/07/30 02:44:43;;;;;;;6.28;2.30;;;22.10;92.50;;;;;;5028684;28;20236;-70
2022/07/30 02:47:11;;;;;;;6.07;2.22;;;22.00;92.60;;;;;;5028107;28;20200;-70
2022/07/30 02:49:39;;;;;;;3.45;2.13;;;22.10;92.60;;;;;;5028345;28;20727;-71
2022/07/30 02:52:11;;;;;;;2.53;1.95;;;22.10;92.60;;;;;;5028120;28;20239;-71
2022/07/30 02:54:41;;;;;;;5.50;2.10;;;22.10;92.90;;;;;;5028006;28;20723;-71
2022/07/30 02:57:09;;;;;;;2.65;1.80;;;22.10;92.60;;;;;;5027550;28;20233;-71
2022/07/30 02:59:37;;;;;;;3.55;2.00;;;22.10;92.60;;;;;;5013407;28;20585;-71
2022/07/30 03:02:08;;;;;;;5.68;2.50;;;22.10;92.70;;;;;;5008210;28;20206;-70
2022/07/30 03:04:36;;;;;;;4.30;2.40;;;22.10;92.70;;;;;;5008375;28;20197;-69
2022/07/30 03:07:04;;;;;;;3.20;2.10;;;22.10;92.70;;;;;;5007958;28;20237;-69
2022/07/30 03:09:31;;;;;;;3.53;2.20;;;22.00;92.70;;;;;;5008350;28;20205;-69
2022/07/30 03:11:58;;;;;;;2.95;2.55;;;22.00;92.80;;;;;;5007606;28;20694;-70
2022/07/30 03:14:25;;;;;;;5.95;2.28;;;22.10;92.80;;;;;;5008293;28;20221;-70
2022/07/30 03:16:57;;;;;;;2.67;1.95;;;22.00;92.70;;;;;;5024662;28;20208;-70
2022/07/30 03:19:31;;;;;;;3.15;1.88;;;21.90;92.80;;;;;;5027678;28;20737;-70
2022/07/30 03:22:01;;;;;;;4.53;2.22;;;21.90;92.80;;;;;;5027973;28;20283;-70
2022/07/30 03:24:28;;;;;;;3.63;2.28;;;21.80;93.00;;;;;;5027414;28;20212;-70
2022/07/30 03:26:59;;;;;;;3.03;2.35;;;21.70;93.00;;;;;;5027418;28;20212;-70
2022/07/30 03:29:27;;;;;;;3.88;2.30;;;21.70;93.20;;;;;;5027652;28;20204;-70
2022/07/30 03:31:55;;;;;;;2.83;2.10;;;21.80;93.50;;;;;;5027132;28;20243;-70
2022/07/30 03:34:22;;;;;;;3.75;2.05;;;21.80;93.50;;;;;;5027716;28;20242;-70
2022/07/30 03:36:51;;;;;;;3.40;1.90;;;21.90;93.60;;;;;;5027789;28;20361;-70
2022/07/30 03:39:18;;;;;;;4.45;2.20;;;21.90;93.80;;;;;;5027741;28;20205;-70
2022/07/30 03:41:47;;;;;;;4.78;2.03;;;21.80;93.50;;;;;;5027409;28;20211;-70
2022/07/30 03:44:14;;;;;;;5.40;2.15;;;21.80;93.60;;;;;;5027621;28;20216;-70
2022/07/30 03:46:42;;;;;;;3.60;2.20;;;21.80;93.90;;;;;;5018860;28;20197;-70
2022/07/30 03:49:10;;;;;;;8.05;2.20;;;21.80;93.90;;;;;;5011905;28;20275;-70
2022/07/30 03:51:37;;;;;;;3.90;2.30;;;21.80;93.90;;;;;;5027069;28;20236;-70
2022/07/30 03:54:08;;;;;;;2.63;2.42;;;21.80;94.00;;;;;;5028756;28;20664;-70
2022/07/30 03:56:35;;;;;;;4.55;2.15;;;21.80;94.10;;;;;;5030993;28;20319;-70
2022/07/30 03:59:02;;;;;;;3.15;2.22;;;21.80;94.00;;;;;;5031006;28;20211;-69
2022/07/30 04:01:29;;;;;;;3.25;2.30;;;21.80;94.00;;;;;;5030926;28;20204;-70
2022/07/30 04:04:03;;;;;;;7.18;2.38;;;21.80;93.90;;;;;;5030886;28;20660;-70
2022/07/30 04:06:30;;;;;;;3.80;2.25;;;21.80;94.10;;;;;;5030495;28;20197;-70
2022/07/30 04:08:57;;;;;;;3.80;2.08;;;21.80;94.40;;;;;;5029776;28;20237;-70
2022/07/30 04:11:25;;;;;;;2.40;2.20;;;21.80;94.60;;;;;;5011006;28;20241;-70
2022/07/30 04:13:51;;;;;;;4.45;2.10;;;21.80;94.80;;;;;;5011231;28;20210;-70
2022/07/30 04:16:31;;;;;;;6.32;2.55;;;21.70;94.80;;;;;;5011290;28;20304;-70
2022/07/30 04:19:01;;;;;;;2.90;2.17;;;21.70;94.80;;;;;;5010858;28;20300;-70
2022/07/30 04:21:29;;;;;;;3.85;2.13;;;21.70;94.90;;;;;;5011412;28;20292;-69
2022/07/30 04:24:00;;;;;;;3.58;2.10;;;21.70;95.10;;;;;;5021005;28;20201;-69
2022/07/30 04:26:30;;;;;;;3.00;1.95;;;21.70;95.10;;;;;;5030353;28;20232;-70
2022/07/30 04:28:57;;;;;;;4.63;2.30;;;21.60;95.20;;;;;;5030573;28;20248;-69
2022/07/30 04:31:25;;;;;;;4.15;2.50;;;21.70;95.30;;;;;;5030119;28;20225;-70
2022/07/30 04:33:52;;;;;;;5.35;2.65;;;21.70;95.40;;;;;;5030870;28;20213;-70
2022/07/30 04:36:18;;;;;;;3.93;2.20;;;21.70;95.40;;;;;;5029945;28;20215;-69
2022/07/30 04:38:45;;;;;;;5.65;2.40;;;21.70;95.60;;;;;;5030667;28;20239;-71
2022/07/30 04:41:12;;;;;;;4.38;2.40;;;21.70;95.90;;;;;;5022066;28;20212;-69
2022/07/30 04:43:40;;;;;;;3.25;2.13;;;21.70;96.00;;;;;;5010427;28;20661;-69
2022/07/30 04:46:07;;;;;;;3.80;2.72;;;21.70;96.00;;;;;;5010472;28;20241;-70
2022/07/30 04:48:34;;;;;;;3.45;2.50;;;21.70;96.00;;;;;;5010233;28;20205;-69
2022/07/30 04:51:05;;;;;;;2.78;2.22;;;21.70;96.10;;;;;;5010186;28;20209;-69
2022/07/30 04:53:33;;;;;;;3.53;2.20;;;21.70;96.40;;;;;;5017843;28;20204;-70
2022/07/30 04:56:04;;;;;;;2.53;2.30;;;21.70;96.70;;;;;;5029624;28;20205;-69
2022/07/30 04:58:33;;;;;;;3.78;2.45;;;21.70;96.60;;;;;;5020495;28;20197;-70
2022/07/30 05:01:05;;;;;;;5.03;2.30;;;21.60;95.80;;;;;;5013847;28;20585;-69
2022/07/30 05:03:34;;;;;;;2.83;2.20;;;21.60;95.40;;;;;;5029840;28;20193;-70
2022/07/30 05:06:05;;;;;;;3.65;2.00;;;21.60;95.30;;;;;;5028550;28;20205;-70
2022/07/30 05:08:32;;;;;;;4.35;2.67;;;21.60;96.10;;;;;;5029593;28;20212;-69
2022/07/30 05:11:00;;;;;;;3.13;2.33;;;21.70;96.30;;;;;;5029975;28;20217;-69
2022/07/30 05:13:26;;;;;;;7.85;2.45;;;21.70;96.40;;;;;;5030090;28;20205;-69
2022/07/30 05:15:54;;;;;;;3.92;2.13;;;21.70;96.20;;;;;;5030050;28;20205;-69
2022/07/30 05:18:22;;;;;;;4.30;2.15;;;21.70;95.40;;;;;;5029629;28;20205;-70
2022/07/30 05:20:50;;;;;;;2.53;2.10;;;21.60;95.20;;;;;;5029749;28;20925;-69
2022/07/30 05:23:17;;;;;;;3.50;2.20;;;21.60;95.20;;;;;;5029759;28;20244;-69
2022/07/30 05:25:44;;;;;;;2.35;1.98;;;21.60;95.20;;;;;;5025235;28;20209;-70
2022/07/30 05:28:11;;;;;;;4.28;2.33;;;21.70;95.60;;;;;;5009640;28;20213;-70
2022/07/30 05:30:38;;;;;;;5.88;2.25;;;21.70;96.00;;;;;;5010028;28;20304;-69
2022/07/30 05:33:04;;;;;;;3.03;1.92;;;21.70;96.10;;;;;;5009825;28;20596;-69
2022/07/30 05:35:32;;;;;;;2.72;1.77;;;21.70;96.10;;;;;;5009897;28;20288;-68
2022/07/30 05:37:59;;;;;;;2.78;1.90;;;21.80;96.20;;;;;;5009682;28;20557;-69
2022/07/30 05:40:26;;;;;;;9.18;2.17;;;21.80;96.20;;;;;;5009117;28;20217;-69
2022/07/30 05:42:53;;;;;;;3.78;2.30;;;21.80;96.30;;;;;;5009413;28;20932;-70
2022/07/30 05:45:20;;;;;;;4.15;2.33;;;21.80;96.40;;;;;;5009158;28;20244;-70
2022/07/30 05:47:47;;;;;;;5.60;1.83;;;21.80;96.40;;;;;;5009378;28;20216;-68
2022/07/30 05:50:13;;;;;;;1.92;1.83;;;21.80;96.30;;;;;;5009413;28;20211;-69
2022/07/30 05:52:42;;;;;;;7.43;2.35;;;21.80;95.80;;;;;;5009533;28;20233;-68
2022/07/30 05:55:09;;;;;;;4.93;2.28;;;21.70;95.70;;;;;;5028725;28;20211;-68
2022/07/30 05:57:36;;;;;;;4.95;1.88;;;21.70;95.80;;;;;;5028597;28;20243;-68
2022/07/30 06:00:04;;;;;;;2.03;1.63;;;21.70;96.00;;;;;;5028463;28;20952;-69
2022/07/30 06:02:31;;;;;;;2.75;1.90;;;21.70;96.20;;;;;;5028799;28;20251;-69
2022/07/30 06:04:58;;;;;;;3.80;2.00;;;21.70;96.20;;;;;;5023423;28;20209;-69
2022/07/30 06:07:25;;;;;;;4.00;2.38;;;21.80;96.30;;;;;;5026834;28;20224;-69
2022/07/30 06:09:58;;;;;;;4.32;2.00;;;21.70;96.60;;;;;;5026410;28;20209;-69
2022/07/30 06:12:25;;;;;;;4.88;2.00;;;21.80;96.40;;;;;;5026563;28;20312;-69
2022/07/30 06:14:52;;;;;;;5.20;2.40;;;21.70;96.40;;;;;;5026735;28;20242;-68
2022/07/30 06:17:19;;;;;;;4.70;2.22;;;21.80;96.50;;;;;;5025774;28;20205;-69
2022/07/30 06:19:46;;;;;;;2.60;2.20;;;21.80;96.40;;;;;;5026441;28;20227;-69
2022/07/30 06:22:12;;;;;;;3.80;2.30;;;21.80;96.60;;;;;;5026371;28;20299;-69
2022/07/30 06:24:39;;;;;;;3.90;1.88;;;21.80;96.10;;;;;;5026480;28;20213;-69
2022/07/30 06:27:07;;;;;;;2.80;2.00;;;21.80;95.90;;;;;;5026486;28;20772;-69
2022/07/30 06:29:35;;;;;;;4.60;1.90;;;21.80;96.10;;;;;;5026535;28;20219;-69
2022/07/30 06:32:01;;;;;;;4.72;1.95;;;21.80;96.40;;;;;;5026248;28;20323;-69
2022/07/30 06:34:28;;;;;;;2.92;2.00;;;21.80;96.30;;;;;;5007040;28;20209;-69
2022/07/30 06:36:55;;;;;;;4.85;1.90;;;21.80;96.30;;;;;;5021211;28;20211;-70
2022/07/30 06:39:22;;;;;;;5.22;2.13;;;21.80;96.50;;;;;;5027638;28;20519;-68
2022/07/30 06:41:49;;;;;;;5.45;2.20;;;21.90;96.60;;;;;;5027642;28;20303;-69
2022/07/30 06:44:17;;;;;;;5.20;2.03;;;21.90;96.40;;;;;;5023085;28;20221;-68
2022/07/30 06:46:43;;;;;;;2.75;1.80;;;21.90;96.20;;;;;;5020524;28;20205;-68
2022/07/30 06:49:10;;;;;;;4.13;1.80;;;21.90;96.00;;;;;;5020743;28;20216;-69
2022/07/30 06:51:37;;;;;;;3.40;2.00;;;21.90;96.00;;;;;;5027596;28;20201;-69
2022/07/30 06:54:04;;;;;;;5.80;1.83;;;21.90;96.10;;;;;;5025918;28;20680;-68
2022/07/30 06:56:31;;;;;;;5.05;1.95;;;21.90;96.30;;;;;;5024417;28;20235;-69
2022/07/30 06:58:57;;;;;;;2.00;1.73;;;22.00;96.30;;;;;;5019948;28;20295;-68
2022/07/30 07:01:25;;;;;;;3.28;1.75;;;22.00;95.90;;;;;;5025564;28;20209;-68
2022/07/30 07:03:52;;;;;;;8.35;2.13;;;22.00;96.20;;;;;;5023265;28;20228;-68
2022/07/30 07:06:19;;;;;;;2.92;1.70;;;22.00;96.40;;;;;;5022889;28;20291;-69
2022/07/30 07:08:46;;;;;;;2.78;1.83;;;22.00;96.50;;;;;;5016784;28;20200;-69
2022/07/30 07:11:13;;;;;;;2.88;2.00;;;22.00;96.50;;;;;;5027270;28;20207;-69
2022/07/30 07:13:40;;;;;;;3.05;1.80;;;22.00;96.20;;;;;;5021041;28;20723;-68
2022/07/30 07:16:06;;;;;;;3.53;1.75;;;22.00;96.10;;;;;;5024222;28;20193;-69
2022/07/30 07:18:35;;;;;;;6.80;2.00;;;22.00;96.20;;;;;;5024772;28;20965;-69
2022/07/30 07:21:05;;;;;;;4.75;1.90;;;22.00;96.10;;;;;;5022470;28;20682;-69
2022/07/30 07:23:31;;;;;;;2.05;1.63;;;22.00;95.90;;;;;;5023679;28;20219;-69
2022/07/30 07:25:58;;;;;;;4.85;1.73;;;22.10;96.00;;;;;;5009168;28;20567;-69
2022/07/30 07:28:25;;;;;;;3.42;2.33;;;22.10;96.30;;;;;;5006510;28;20209;-68
2022/07/30 07:30:52;;;;;;;32.17;3.95;;;22.10;96.30;;;;;;5018062;28;20206;-68
2022/07/30 07:33:19;;;;;;;8.40;1.90;;;22.10;96.50;;;;;;5036830;28;20232;-68
2022/07/30 07:35:47;;;;;;;2.33;1.85;;;22.10;96.10;;;;;;5018510;28;20212;-68
2022/07/30 07:38:14;;;;;;;3.38;1.85;;;22.20;96.00;;;;;;5011723;28;20219;-68
2022/07/30 07:40:41;;;;;;;2.67;1.67;;;22.10;95.80;;;;;;5011449;28;20699;-68
2022/07/30 07:43:07;;;;;;;5.72;2.10;;;22.20;95.80;;;;;;5026925;28;20323;-69
2022/07/30 07:45:34;;;;;;;4.20;1.70;;;22.20;95.90;;;;;;5031009;28;20588;-69
2022/07/30 07:48:01;;;;;;;4.50;1.70;;;22.20;95.90;;;;;;5028952;28;20215;-69
2022/07/30 07:50:28;;;;;;;5.65;1.88;;;22.30;96.00;;;;;;5010327;28;20205;-69
2022/07/30 07:52:56;;;;;;;10.68;2.35;;;22.30;95.90;;;;;;5013211;28;20252;-68
2022/07/30 07:55:24;;;;;;;2.38;2.05;;;22.30;96.20;;;;;;5030996;28;20213;-69
2022/07/30 07:57:51;;;;;;;4.55;2.03;;;22.30;95.90;;;;;;5030947;28;20240;-69
2022/07/30 08:00:18;;;;;;;6.18;1.80;;;22.40;95.60;;;;;;5030043;28;20208;-69
2022/07/30 08:02:45;;;;;;;3.53;1.73;;;22.50;95.70;;;;;;5029188;28;20201;-69
2022/07/30 08:05:13;;;;;;;4.10;1.85;;;22.50;95.80;;;;;;5031207;28;20211;-69
2022/07/30 08:07:40;;;;;;;5.78;1.90;;;22.50;95.80;;;;;;5030885;28;20254;-69
2022/07/30 08:10:09;;;;;;;1.60;1.60;;;22.60;95.80;;;;;;5030715;28;20321;-70
2022/07/30 08:12:36;;;;;;;2.42;1.60;;;22.60;96.00;;;;;;5031106;28;20236;-68
2022/07/30 08:15:04;;;;;;;24.20;3.17;;;22.70;95.80;;;;;;5030466;28;20213;-68
2022/07/30 08:17:31;;;;;;;4.07;1.60;;;22.70;95.80;;;;;;5030935;28;20304;-69
2022/07/30 08:20:00;;;;;;;13.27;2.67;;;22.60;95.40;;;;;;5030701;28;20201;-69
2022/07/30 08:22:26;;;;;;;8.63;2.47;;;22.70;95.60;;;;;;5030590;28;20637;-69
2022/07/30 08:24:54;;;;;;;4.72;2.03;;;22.70;95.70;;;;;;5030684;28;20209;-69
2022/07/30 08:27:22;;;;;;;4.60;1.80;;;22.80;95.80;;;;;;5030048;28;20710;-69
2022/07/30 08:29:49;;;;;;;2.65;1.80;;;22.90;95.90;;;;;;5030742;28;20201;-69
2022/07/30 08:32:16;;;;;;;3.53;2.10;;;22.90;96.00;;;;;;5022175;28;20198;-69
2022/07/30 08:34:42;;;;;;;3.85;2.25;;;22.90;95.90;;;;;;5010565;28;20216;-69
2022/07/30 08:37:09;;;;;;;3.08;1.70;;;22.90;95.90;;;;;;5010711;28;20235;-69
2022/07/30 08:39:36;;;;;;;6.07;1.73;;;22.90;96.00;;;;;;5010541;28;20205;-69
2022/07/30 08:42:04;;;;;;;2.60;1.92;;;22.90;95.90;;;;;;5010443;28;20205;-69
2022/07/30 08:44:33;;;;;;;4.85;1.98;;;22.90;95.80;;;;;;5010585;28;20229;-69
2022/07/30 08:47:02;;;;;;;2.15;1.80;;;22.90;95.90;;;;;;5010661;28;20202;-69
2022/07/30 08:49:29;;;;;;;2.75;1.90;;;23.00;96.10;;;;;;5010246;28;20216;-69
2022/07/30 08:51:56;;;;;;;5.18;2.00;;;23.10;96.00;;;;;;5010345;28;20676;-69
2022/07/30 08:54:23;;;;;;;2.33;2.05;;;23.20;96.30;;;;;;5024270;28;20619;-69
2022/07/30 08:56:50;;;;;;;3.88;1.80;;;23.20;96.30;;;;;;5029789;28;20340;-69
2022/07/30 08:59:17;;;;;;;2.20;1.90;;;23.30;96.00;;;;;;5029885;28;20292;-69
2022/07/30 09:01:45;;;;;;;2.83;2.10;;;23.30;95.80;;;;;;5012170;28;20215;-69
2022/07/30 09:04:13;;;;;;;4.55;2.00;;;23.30;96.00;;;;;;5010292;28;20263;-69
2022/07/30 09:06:40;;;;;;;6.43;2.38;;;23.30;96.20;;;;;;5010402;28;20205;-69
2022/07/30 09:09:07;;;;;;;9.52;2.72;;;23.30;96.10;;;;;;5010411;28;20205;-69
2022/07/30 09:11:34;;;;;;;3.05;1.83;;;23.30;96.10;;;;;;5010229;28;20300;-69
2022/07/30 09:14:08;;;;;;;3.22;2.00;;;23.30;95.80;;;;;;5010232;28;20708;-69
2022/07/30 09:16:35;;;;;;;2.45;2.10;;;23.30;95.70;;;;;;5010169;28;20204;-69
2022/07/30 09:19:14;;;;;;;5.03;2.67;;;23.30;95.60;;;;;;5009966;28;20300;-69
2022/07/30 09:21:41;;;;;;;5.88;2.10;;;23.40;95.70;;;;;;5010251;28;20190;-69
2022/07/30 09:24:09;;;;;;;6.57;2.35;;;23.40;95.90;;;;;;5021853;28;20213;-69
2022/07/30 09:26:56;;;;;;;1.75;1.65;;;23.40;96.00;;;;;;5029281;28;20276;-67
2022/07/30 09:29:24;;;;;;;2.42;1.67;;;23.50;96.00;;;;;;5014949;28;20620;-67
2022/07/30 09:31:56;;;;;;;2.15;1.70;;;23.50;95.60;;;;;;5009862;28;20744;-67
2022/07/30 09:34:27;;;;;;;3.00;2.03;;;23.50;95.60;;;;;;5021051;28;20774;-67
2022/07/30 09:36:54;;;;;;;5.20;1.83;;;23.50;95.90;;;;;;5029401;28;20200;-69
2022/07/30 09:39:31;;;;;;;4.13;2.00;;;23.60;95.70;;;;;;5029282;28;20212;-69
2022/07/30 09:41:58;;;;;;;3.17;1.80;;;23.60;95.80;;;;;;5029210;28;20576;-67
2022/07/30 09:44:26;;;;;;;2.10;1.80;;;23.60;95.80;;;;;;5028701;28;20245;-67
2022/07/30 09:46:53;;;;;;;2.38;1.80;;;23.70;95.70;;;;;;5028971;28;20212;-67
2022/07/30 09:49:21;;;;;;;2.78;1.60;;;23.80;95.70;;;;;;5028656;28;20813;-67
2022/07/30 09:51:50;;;;;;;21.38;3.47;;;23.90;95.90;;;;;;5028051;28;20263;-67
2022/07/30 09:54:17;;;;;;;3.67;1.80;;;24.00;96.00;;;;;;5028467;28;20592;-67
2022/07/30 09:56:45;;;;;;;3.22;2.00;;;24.10;96.00;;;;;;5019330;28;20233;-67
2022/07/30 09:59:27;;;;;;;2.88;1.80;;;24.20;95.70;;;;;;5008873;28;20213;-67
2022/07/30 10:01:55;;;;;;;4.25;1.83;;;24.30;95.50;;;;;;5008824;28;20251;-67
2022/07/30 10:04:26;;;;;;;6.82;2.58;;;24.30;95.80;;;;;;5009012;28;20218;-68
2022/07/30 10:06:55;;;;;;;5.80;1.88;;;24.40;95.70;;;;;;5008936;28;20210;-69
2022/07/30 10:09:26;;;;;;;3.40;1.98;;;24.40;95.80;;;;;;5008763;28;21076;-69
2022/07/30 10:11:55;;;;;;;2.63;2.00;;;24.50;96.20;;;;;;5008622;28;20288;-69
2022/07/30 10:14:23;;;;;;;3.42;2.05;;;24.60;96.00;;;;;;5008769;28;20241;-69
2022/07/30 10:16:50;;;;;;;6.70;2.25;;;24.60;95.70;;;;;;5014690;28;20224;-69
2022/07/30 10:19:18;;;;;;;6.43;2.20;;;24.70;95.90;;;;;;5028245;28;20327;-69
2022/07/30 10:21:45;;;;;;;3.30;1.80;;;24.80;96.30;;;;;;5028483;28;20209;-69
2022/07/30 10:24:16;;;;;;;3.20;1.80;;;24.90;95.50;;;;;;5022914;28;20734;-69
2022/07/30 10:26:43;;;;;;;7.00;2.47;;;25.00;95.30;;;;;;5028378;28;20192;-69
2022/07/30 10:29:10;;;;;;;2.17;1.60;;;25.10;95.00;;;;;;5028277;28;20209;-69
2022/07/30 10:31:38;;;;;;;1.83;1.42;;;25.20;95.10;;;;;;5028631;28;20554;-69
2022/07/30 10:34:05;;;;;;;5.22;1.67;;;25.20;94.70;;;;;;5027909;28;20989;-69
2022/07/30 10:36:34;;;;;;;6.18;2.10;;;25.30;94.60;;;;;;5016768;28;20206;-69
2022/07/30 10:39:01;;;;;;;3.63;1.70;;;25.40;94.60;;;;;;5008503;28;20206;-69
2022/07/30 10:41:45;;;;;;;4.20;1.60;;;25.40;94.50;;;;;;5008428;28;20292;-69
2022/07/30 10:44:47;;;;;;;4.40;1.67;;;25.50;94.00;;;;;;5008207;28;20419;-69
2022/07/30 10:47:17;;;;;;;6.53;1.90;;;25.50;93.90;;;;;;5008097;28;20562;-68
2022/07/30 10:50:05;;;;;;;6.30;1.80;;;25.50;94.30;;;;;;5008576;28;20200;-69
2022/07/30 10:52:49;;;;;;;4.95;1.98;;;25.60;94.30;;;;;;5008273;28;20703;-69
2022/07/30 10:55:17;;;;;;;3.05;1.60;;;25.80;94.10;;;;;;5007928;28;20201;-69
2022/07/30 10:58:04;;;;;;;11.63;2.10;;;25.80;93.60;;;;;;5027402;28;20685;-69
2022/07/30 11:00:32;;;;;;;6.03;2.10;;;25.90;93.20;;;;;;5028061;28;20193;-69
2022/07/30 11:03:16;;;;;;;2.83;1.80;;;25.90;93.10;;;;;;5027526;28;20671;-69
2022/07/30 11:05:44;;;;;;;3.15;1.92;;;26.00;93.00;;;;;;5008177;28;20340;-69
2022/07/30 11:08:31;;;;;;;2.85;1.75;;;26.10;93.20;;;;;;5008034;28;20209;-69
2022/07/30 11:10:58;;;;;;;5.22;1.70;;;26.10;92.50;;;;;;5007916;28;20682;-69
2022/07/30 11:13:56;;;;;;;2.15;1.50;;;26.20;92.60;;;;;;5007545;28;20717;-67
2022/07/30 11:16:24;;;;;;;5.90;1.63;;;26.40;92.40;;;;;;5007994;28;20707;-67
2022/07/30 11:19:08;;;;;;;3.35;1.65;;;26.50;92.30;;;;;;5007454;28;20631;-67
2022/07/30 11:21:35;;;;;;;4.88;1.42;;;26.70;91.70;;;;;;5007912;28;20264;-67
2022/07/30 11:24:03;;;;;;;2.88;1.58;;;26.80;91.30;;;;;;5009068;28;20309;-67
2022/07/30 11:26:50;;;;;;;2.85;1.35;;;26.80;91.00;;;;;;5007816;28;20299;-69
2022/07/30 11:29:40;;;;;;;12.30;1.70;;;27.00;91.50;;;;;;5007455;28;20676;-69
2022/07/30 11:32:31;;;;;;;4.22;1.58;;;27.20;91.30;;;;;;5007899;28;20197;-69
2022/07/30 11:35:26;;;;;;;7.50;1.40;;;27.40;91.30;;;;;;4997595;28;20320;-69
2022/07/30 11:38:05;;;;;;;1.92;1.73;;;27.60;90.90;;;;;;4983964;28;20309;-69
2022/07/30 11:40:33;;;;;;;16.95;11.90;;;27.70;90.60;;;;;;5007383;28;20682;-69
2022/07/30 11:43:22;;;;;;;2.00;1.80;;;27.80;90.00;;;;;;5007454;28;20585;-69
2022/07/30 11:45:52;;;;;;;3.28;1.70;;;27.90;89.40;;;;;;5007825;28;20209;-69
2022/07/30 11:48:20;;;;;;;1.55;1.33;;;27.90;89.30;;;;;;5007314;28;20212;-69
2022/07/30 11:50:48;;;;;;;3.92;1.30;;;28.00;89.90;;;;;;5007538;28;20229;-69
2022/07/30 11:53:18;;;;;;;2.10;1.75;;;28.10;88.50;;;;;;5012324;28;20216;-69
2022/07/30 11:55:49;;;;;;;4.00;1.85;;;28.30;88.00;;;;;;5027074;28;20213;-70
2022/07/30 11:58:25;;;;;;;5.07;1.70;;;28.40;88.20;;;;;;5015321;28;20198;-69
2022/07/30 12:00:54;;;;;;;3.53;1.35;;;28.40;86.90;;;;;;5007853;28;20208;-67
2022/07/30 12:03:25;;;;;;;7.10;1.60;;;28.50;86.60;;;;;;5007105;28;20218;-68
2022/07/30 12:05:52;;;;;;;1.58;1.40;;;28.60;86.90;;;;;;5007061;28;20202;-68
2022/07/30 12:08:21;;;;;;;17.63;2.05;;;28.70;86.60;;;;;;5007456;28;20201;-67
2022/07/30 12:11:00;;;;;;;4.57;1.42;;;28.80;86.10;;;;;;5007038;28;20205;-68
2022/07/30 12:13:27;;;;;;;4.25;1.52;;;29.00;86.30;;;;;;5006992;28;20237;-68
2022/07/30 12:15:55;;;;;;;4.53;1.70;;;29.10;85.70;;;;;;5010281;28;20361;-68
2022/07/30 12:18:27;;;;;;;4.45;1.73;;;29.10;85.00;;;;;;5010515;28;20215;-68
2022/07/30 12:20:59;;;;;;;3.53;1.77;;;29.20;85.10;;;;;;5011021;28;20206;-68
2022/07/30 12:23:26;;;;;;;6.28;1.50;;;29.30;85.00;;;;;;5017348;28;20227;-68
2022/07/30 12:25:54;;;;;;;14.23;2.38;;;29.50;83.90;;;;;;5030037;28;20208;-69
2022/07/30 12:28:23;;;;;;;28.50;3.58;;;29.60;84.30;;;;;;5028318;28;20211;-68
2022/07/30 12:30:50;;;;;;;2.67;1.60;;;29.50;83.30;;;;;;5010851;28;20213;-68
2022/07/30 12:33:19;;;;;;;1.55;1.45;;;29.30;83.40;;;;;;5010682;28;20213;-68
2022/07/30 12:35:47;;;;;;;2.45;1.17;;;29.10;83.30;;;;;;5010493;28;20684;-68
2022/07/30 12:38:15;;;;;;;2.13;1.60;;;29.20;84.30;;;;;;5010583;28;20232;-69
2022/07/30 12:40:56;;;;;;;4.78;1.60;;;29.40;85.10;;;;;;5010470;28;20213;-68
2022/07/30 12:43:42;;;;;;;3.30;1.30;;;29.70;82.40;;;;;;5010545;28;20209;-68
2022/07/30 12:46:09;;;;;;;3.63;1.45;;;29.80;81.80;;;;;;5010613;28;20216;-69
2022/07/30 12:48:37;;;;;;;12.40;2.00;;;29.80;81.20;;;;;;5009942;28;20220;-68
2022/07/30 12:51:07;;;;;;;1.23;1.10;;;29.90;80.50;;;;;;5015194;28;20225;-68
2022/07/30 12:53:34;;;;;;;3.83;1.85;;;30.10;80.40;;;;;;5030123;28;20347;-68
2022/07/30 12:56:11;;;;;;;2.05;1.42;;;30.10;79.90;;;;;;5029609;28;20240;-69
2022/07/30 12:58:38;;;;;;;5.70;1.40;;;30.30;81.20;;;;;;5010408;28;20209;-69
2022/07/30 13:01:09;;;;;;;3.47;1.60;;;30.50;80.00;;;;;;5010009;28;20237;-68